Greater Peoria Regional Airport
KPIA : now visible

Airfield :











YOU CAN JOIN US ON...

 
LOGIN :

Register | Disclaimer

   EN    FR    IT 

 









Legend :    VFR   Marginal VFR   IFR   Intensive IFR   Very Intensive IFR
Visi :
Ceiling :
>= 8 km
>= 3000ft
5 to 8 km
1000 to 3000 ft
1500m to 5 km
500 to 1000 ft
800 to 1500m
200 to 500 ft
< 800m
< 200 ft
Symbols :   Thunderstorms  Fog  Heavy snow  Heavy precipitations  Wind > 20 kt






- Airport Elevation : 660 ft
- IATA code : PIA


KPIA - Greater Peoria Regional

CURRENT METAR :
  • 201054Z 04006KT 7SM BKN008 OVC038 05/03 A3023 RMK AO2 SLP242 T00500028 $

EXPIRED METARs :
  • 200954Z 04006KT 8SM FEW008 OVC035 04/02 A3022 RMK AO2 SLP238 T00440022 $
  • 200947Z 04005KT 8SM FEW008 OVC037 04/02 A3022 RMK AO2 T00440022 $
  • 200854Z 04004KT 8SM OVC008 04/02 A3023 RMK AO2 SLP240 T00440022 51008 $

TAF KPIA
Valid from the 20 at 10:00 until the 21 at 06:00 UTC


201001Z 2010/2106 04006KT P6SM FEW008 OVC035
TEMPO 2010/2013 BKN008
FM201300 08008KT P6SM BKN040
FM201900 12010KT P6SM BKN030
FM202300 14012KT 6SM -RA BR SCT007 BKN012
FM210400 24011KT P6SM VCSH BKN022
KZAU FIR / North America



MET'MAP, your aeronautical weather chart ! - Copyright ORBIFLY December 2007 - Disclaimer

ORBIFLY MET'MAP TEAM :

Programming & Development : Alexandra Zaïnal
Concept & original design : Baudouin d'Aumeries
Assistance for programming : Marc-Olivier Méhu
Technical & hardware support : Manuel Goepfert

Contact : metmap@orbifly.com




SOURCES & CREDITS :

   NOAA       Earth
Advisory